Dallas, Texas
Current Conditions -  °F | °C
As of 12:53 PM on Monday 22 Dec 2014 (Local Time) from KDAL Reporting Station
Few Clouds Few Clouds  
Wind Chill: 64°   Ceiling: Unl
Heat Index: 64°   Visibility: 10mi
Dew Point: 42°   Wind: 10mph
Humidity: 45%   Direction: 290°WNW
Pressure: 29.58"   Gusts: 21mph
Location:  32.78°N, 96.79°W
Report Text: KDAL 221853Z 29009G18KT 10SM FEW044 FEW250 18/06 A2958 RMK AO2 SLP011 T01780056
Loading
Personal Weather Stations






























Interactive Weather Map New forecast layout! Learn more

10-Day Weather Forecast

Advertisements
Track Severe Weather on mobile